sensor_id;sensor_type;location;lat;lon;timestamp;temperature;humidity
76172;DHT22;64929;51.178;4.138;2022-12-04T00:02:03;3.80;73.40
76172;DHT22;64929;51.178;4.138;2022-12-04T00:04:29;3.80;73.80
76172;DHT22;64929;51.178;4.138;2022-12-04T00:06:54;3.90;73.40
76172;DHT22;64929;51.178;4.138;2022-12-04T00:09:20;4.00;73.20
76172;DHT22;64929;51.178;4.138;2022-12-04T00:11:46;3.80;72.90
76172;DHT22;64929;51.178;4.138;2022-12-04T00:14:12;3.80;73.70
76172;DHT22;64929;51.178;4.138;2022-12-04T00:16:37;3.80;73.90
76172;DHT22;64929;51.178;4.138;2022-12-04T00:19:04;3.70;73.90
76172;DHT22;64929;51.178;4.138;2022-12-04T00:21:29;3.80;73.60
76172;DHT22;64929;51.178;4.138;2022-12-04T00:23:55;3.60;74.10
76172;DHT22;64929;51.178;4.138;2022-12-04T00:26:24;3.50;74.70
76172;DHT22;64929;51.178;4.138;2022-12-04T00:28:50;3.50;74.70
76172;DHT22;64929;51.178;4.138;2022-12-04T00:31:24;3.70;74.50
76172;DHT22;64929;51.178;4.138;2022-12-04T00:33:51;3.70;73.90
76172;DHT22;64929;51.178;4.138;2022-12-04T00:36:20;3.70;73.80
76172;DHT22;64929;51.178;4.138;2022-12-04T00:38:46;3.80;73.40
76172;DHT22;64929;51.178;4.138;2022-12-04T00:41:15;3.70;73.50
76172;DHT22;64929;51.178;4.138;2022-12-04T00:43:40;3.60;73.70
76172;DHT22;64929;51.178;4.138;2022-12-04T00:46:06;3.50;74.10
76172;DHT22;64929;51.178;4.138;2022-12-04T00:48:32;3.60;73.60
76172;DHT22;64929;51.178;4.138;2022-12-04T00:51:09;3.60;73.70
76172;DHT22;64929;51.178;4.138;2022-12-04T00:53:36;3.50;74.20
76172;DHT22;64929;51.178;4.138;2022-12-04T00:56:04;3.30;74.90
76172;DHT22;64929;51.178;4.138;2022-12-04T00:58:29;3.40;74.30
76172;DHT22;64929;51.178;4.138;2022-12-04T01:01:01;3.30;74.50
76172;DHT22;64929;51.178;4.138;2022-12-04T01:03:28;3.20;74.90
76172;DHT22;64929;51.178;4.138;2022-12-04T01:05:54;3.10;75.50
76172;DHT22;64929;51.178;4.138;2022-12-04T01:08:20;3.20;75.10
76172;DHT22;64929;51.178;4.138;2022-12-04T01:10:46;3.30;74.90
76172;DHT22;64929;51.178;4.138;2022-12-04T01:13:11;3.20;74.80
76172;DHT22;64929;51.178;4.138;2022-12-04T01:15:38;3.10;75.10
76172;DHT22;64929;51.178;4.138;2022-12-04T01:18:04;3.20;75.40
76172;DHT22;64929;51.178;4.138;2022-12-04T01:20:30;3.10;75.50
76172;DHT22;64929;51.178;4.138;2022-12-04T01:22:56;3.00;76.00
76172;DHT22;64929;51.178;4.138;2022-12-04T01:25:21;3.20;75.60
76172;DHT22;64929;51.178;4.138;2022-12-04T01:27:47;3.30;75.10
76172;DHT22;64929;51.178;4.138;2022-12-04T01:30:13;3.40;74.50
76172;DHT22;64929;51.178;4.138;2022-12-04T01:32:38;3.10;75.30
76172;DHT22;64929;51.178;4.138;2022-12-04T01:35:04;3.10;75.80
76172;DHT22;64929;51.178;4.138;2022-12-04T01:37:31;3.00;75.90
76172;DHT22;64929;51.178;4.138;2022-12-04T01:39:57;3.10;75.40
76172;DHT22;64929;51.178;4.138;2022-12-04T01:42:23;3.10;75.30
76172;DHT22;64929;51.178;4.138;2022-12-04T01:45:32;3.00;75.90
76172;DHT22;64929;51.178;4.138;2022-12-04T01:50:46;3.10;75.80
76172;DHT22;64929;51.178;4.138;2022-12-04T01:53:13;3.10;75.70
76172;DHT22;64929;51.178;4.138;2022-12-04T01:55:39;2.90;76.30
76172;DHT22;64929;51.178;4.138;2022-12-04T01:58:06;3.10;76.00
76172;DHT22;64929;51.178;4.138;2022-12-04T02:00:32;3.10;76.10
76172;DHT22;64929;51.178;4.138;2022-12-04T02:02:58;3.00;76.20
76172;DHT22;64929;51.178;4.138;2022-12-04T02:05:24;3.00;76.50
76172;DHT22;64929;51.178;4.138;2022-12-04T02:07:52;2.80;76.90
76172;DHT22;64929;51.178;4.138;2022-12-04T02:10:23;2.80;77.00
76172;DHT22;64929;51.178;4.138;2022-12-04T02:13:07;2.90;77.00
76172;DHT22;64929;51.178;4.138;2022-12-04T02:15:58;2.90;76.90
76172;DHT22;64929;51.178;4.138;2022-12-04T02:18:39;2.90;76.60
76172;DHT22;64929;51.178;4.138;2022-12-04T02:24:01;3.20;75.60
76172;DHT22;64929;51.178;4.138;2022-12-04T02:29:31;3.00;76.10
76172;DHT22;64929;51.178;4.138;2022-12-04T02:34:58;3.10;76.20
76172;DHT22;64929;51.178;4.138;2022-12-04T02:37:46;3.00;76.40
76172;DHT22;64929;51.178;4.138;2022-12-04T02:40:22;3.20;75.90
76172;DHT22;64929;51.178;4.138;2022-12-04T02:45:24;3.00;76.70
76172;DHT22;64929;51.178;4.138;2022-12-04T02:47:51;3.00;76.90
76172;DHT22;64929;51.178;4.138;2022-12-04T02:50:20;3.00;76.50
76172;DHT22;64929;51.178;4.138;2022-12-04T02:52:58;3.00;76.90
76172;DHT22;64929;51.178;4.138;2022-12-04T02:55:30;3.10;76.30
76172;DHT22;64929;51.178;4.138;2022-12-04T02:58:01;3.20;76.20
76172;DHT22;64929;51.178;4.138;2022-12-04T03:00:31;3.20;76.20
76172;DHT22;64929;51.178;4.138;2022-12-04T03:03:03;3.10;76.40
76172;DHT22;64929;51.178;4.138;2022-12-04T03:05:44;3.00;76.80
76172;DHT22;64929;51.178;4.138;2022-12-04T03:08:17;2.80;77.50
76172;DHT22;64929;51.178;4.138;2022-12-04T03:10:54;2.70;78.10
76172;DHT22;64929;51.178;4.138;2022-12-04T03:13:25;2.70;78.30
76172;DHT22;64929;51.178;4.138;2022-12-04T03:18:50;2.90;77.20
76172;DHT22;64929;51.178;4.138;2022-12-04T03:21:21;2.90;77.10
76172;DHT22;64929;51.178;4.138;2022-12-04T03:23:55;3.00;77.10
76172;DHT22;64929;51.178;4.138;2022-12-04T03:26:32;2.90;77.40
76172;DHT22;64929;51.178;4.138;2022-12-04T03:29:10;2.90;77.40
76172;DHT22;64929;51.178;4.138;2022-12-04T03:32:11;2.90;77.20
76172;DHT22;64929;51.178;4.138;2022-12-04T03:37:18;2.90;77.30
76172;DHT22;64929;51.178;4.138;2022-12-04T03:39:56;2.90;77.10
76172;DHT22;64929;51.178;4.138;2022-12-04T03:42:25;2.80;77.50
76172;DHT22;64929;51.178;4.138;2022-12-04T03:45:00;2.90;77.00
76172;DHT22;64929;51.178;4.138;2022-12-04T03:47:35;2.90;77.30
76172;DHT22;64929;51.178;4.138;2022-12-04T03:50:15;3.00;77.30
76172;DHT22;64929;51.178;4.138;2022-12-04T03:52:47;3.00;77.00
76172;DHT22;64929;51.178;4.138;2022-12-04T03:57:45;2.90;77.30
76172;DHT22;64929;51.178;4.138;2022-12-04T04:00:17;2.90;77.70
76172;DHT22;64929;51.178;4.138;2022-12-04T04:02:55;3.00;77.30
76172;DHT22;64929;51.178;4.138;2022-12-04T04:05:23;3.00;77.20
76172;DHT22;64929;51.178;4.138;2022-12-04T04:07:53;3.10;76.70
76172;DHT22;64929;51.178;4.138;2022-12-04T04:10:24;3.10;76.50
76172;DHT22;64929;51.178;4.138;2022-12-04T04:12:58;3.00;77.10
76172;DHT22;64929;51.178;4.138;2022-12-04T04:15:49;3.10;76.90
76172;DHT22;64929;51.178;4.138;2022-12-04T04:18:36;3.20;76.20
76172;DHT22;64929;51.178;4.138;2022-12-04T04:21:26;3.20;76.40
76172;DHT22;64929;51.178;4.138;2022-12-04T04:27:07;3.10;76.40
76172;DHT22;64929;51.178;4.138;2022-12-04T04:29:33;3.10;76.90
76172;DHT22;64929;51.178;4.138;2022-12-04T04:32:09;3.20;76.50
76172;DHT22;64929;51.178;4.138;2022-12-04T04:40:25;3.30;75.90
76172;DHT22;64929;51.178;4.138;2022-12-04T04:43:03;3.30;75.40
76172;DHT22;64929;51.178;4.138;2022-12-04T04:45:52;3.30;75.70
76172;DHT22;64929;51.178;4.138;2022-12-04T04:48:25;3.30;76.10
76172;DHT22;64929;51.178;4.138;2022-12-04T04:50:52;3.30;76.10
76172;DHT22;64929;51.178;4.138;2022-12-04T04:53:21;3.20;75.90
76172;DHT22;64929;51.178;4.138;2022-12-04T04:55:48;3.30;75.30
76172;DHT22;64929;51.178;4.138;2022-12-04T04:58:18;3.30;75.80
76172;DHT22;64929;51.178;4.138;2022-12-04T05:01:08;3.20;76.00
76172;DHT22;64929;51.178;4.138;2022-12-04T05:03:34;3.10;76.40
76172;DHT22;64929;51.178;4.138;2022-12-04T05:06:00;3.10;76.40
76172;DHT22;64929;51.178;4.138;2022-12-04T05:08:26;3.20;76.50
76172;DHT22;64929;51.178;4.138;2022-12-04T05:10:52;3.10;77.00
76172;DHT22;64929;51.178;4.138;2022-12-04T05:13:18;3.20;76.30
76172;DHT22;64929;51.178;4.138;2022-12-04T05:15:44;3.20;75.90
76172;DHT22;64929;51.178;4.138;2022-12-04T05:18:19;3.30;76.00
76172;DHT22;64929;51.178;4.138;2022-12-04T05:20:45;3.30;75.70
76172;DHT22;64929;51.178;4.138;2022-12-04T05:23:10;3.10;76.40
76172;DHT22;64929;51.178;4.138;2022-12-04T05:25:39;3.10;76.50
76172;DHT22;64929;51.178;4.138;2022-12-04T05:28:04;3.20;76.40
76172;DHT22;64929;51.178;4.138;2022-12-04T05:30:31;3.10;76.60
76172;DHT22;64929;51.178;4.138;2022-12-04T05:32:56;3.10;76.40
76172;DHT22;64929;51.178;4.138;2022-12-04T05:35:22;3.20;76.40
76172;DHT22;64929;51.178;4.138;2022-12-04T05:37:47;3.20;76.70
76172;DHT22;64929;51.178;4.138;2022-12-04T05:40:13;3.20;76.10
76172;DHT22;64929;51.178;4.138;2022-12-04T05:42:39;3.20;76.40
76172;DHT22;64929;51.178;4.138;2022-12-04T05:45:05;3.20;76.10
76172;DHT22;64929;51.178;4.138;2022-12-04T05:47:31;3.20;75.70
76172;DHT22;64929;51.178;4.138;2022-12-04T05:50:01;3.20;75.90
76172;DHT22;64929;51.178;4.138;2022-12-04T05:52:27;3.20;76.30
76172;DHT22;64929;51.178;4.138;2022-12-04T05:54:52;3.10;76.30
76172;DHT22;64929;51.178;4.138;2022-12-04T05:57:18;3.00;76.80
76172;DHT22;64929;51.178;4.138;2022-12-04T05:59:44;3.10;76.50
76172;DHT22;64929;51.178;4.138;2022-12-04T06:02:09;3.20;76.30
76172;DHT22;64929;51.178;4.138;2022-12-04T06:04:36;3.20;76.10
76172;DHT22;64929;51.178;4.138;2022-12-04T06:07:02;3.20;76.10
76172;DHT22;64929;51.178;4.138;2022-12-04T06:09:28;3.20;76.40
76172;DHT22;64929;51.178;4.138;2022-12-04T06:11:56;3.20;76.50
76172;DHT22;64929;51.178;4.138;2022-12-04T06:14:22;3.20;76.40
76172;DHT22;64929;51.178;4.138;2022-12-04T06:16:48;3.20;76.10
76172;DHT22;64929;51.178;4.138;2022-12-04T06:19:16;3.20;76.10
76172;DHT22;64929;51.178;4.138;2022-12-04T06:21:44;3.20;76.30
76172;DHT22;64929;51.178;4.138;2022-12-04T06:24:14;3.30;76.40
76172;DHT22;64929;51.178;4.138;2022-12-04T06:26:40;3.30;75.80
76172;DHT22;64929;51.178;4.138;2022-12-04T06:29:05;3.30;76.20
76172;DHT22;64929;51.178;4.138;2022-12-04T06:31:31;3.10;76.60
76172;DHT22;64929;51.178;4.138;2022-12-04T06:33:58;3.20;76.40
76172;DHT22;64929;51.178;4.138;2022-12-04T06:36:24;3.20;76.30
76172;DHT22;64929;51.178;4.138;2022-12-04T06:38:51;3.20;76.50
76172;DHT22;64929;51.178;4.138;2022-12-04T06:41:19;3.20;76.20
76172;DHT22;64929;51.178;4.138;2022-12-04T06:43:45;3.30;76.00
76172;DHT22;64929;51.178;4.138;2022-12-04T06:46:16;3.40;75.40
76172;DHT22;64929;51.178;4.138;2022-12-04T06:48:43;3.40;75.90
76172;DHT22;64929;51.178;4.138;2022-12-04T06:51:16;3.30;76.70
76172;DHT22;64929;51.178;4.138;2022-12-04T06:53:43;3.40;75.70
76172;DHT22;64929;51.178;4.138;2022-12-04T06:56:11;3.40;75.60
76172;DHT22;64929;51.178;4.138;2022-12-04T06:58:38;3.40;75.60
76172;DHT22;64929;51.178;4.138;2022-12-04T07:01:09;3.40;75.70
76172;DHT22;64929;51.178;4.138;2022-12-04T07:03:35;3.20;76.20
76172;DHT22;64929;51.178;4.138;2022-12-04T07:06:17;3.30;75.90
76172;DHT22;64929;51.178;4.138;2022-12-04T07:08:44;3.30;76.20
76172;DHT22;64929;51.178;4.138;2022-12-04T07:11:10;3.30;75.80
76172;DHT22;64929;51.178;4.138;2022-12-04T07:13:36;3.30;76.00
76172;DHT22;64929;51.178;4.138;2022-12-04T07:16:03;3.40;75.40
76172;DHT22;64929;51.178;4.138;2022-12-04T07:18:30;3.30;75.90
76172;DHT22;64929;51.178;4.138;2022-12-04T07:20:56;3.10;76.20
76172;DHT22;64929;51.178;4.138;2022-12-04T07:23:22;3.30;75.80
76172;DHT22;64929;51.178;4.138;2022-12-04T07:25:47;3.50;74.80
76172;DHT22;64929;51.178;4.138;2022-12-04T07:28:13;3.40;75.00
76172;DHT22;64929;51.178;4.138;2022-12-04T07:30:39;3.30;75.70
76172;DHT22;64929;51.178;4.138;2022-12-04T07:33:05;3.30;75.80
76172;DHT22;64929;51.178;4.138;2022-12-04T07:35:30;3.30;75.70
76172;DHT22;64929;51.178;4.138;2022-12-04T07:37:56;3.20;75.90
76172;DHT22;64929;51.178;4.138;2022-12-04T07:40:22;3.40;75.30
76172;DHT22;64929;51.178;4.138;2022-12-04T07:42:47;3.40;75.20
76172;DHT22;64929;51.178;4.138;2022-12-04T07:45:13;3.50;74.90
76172;DHT22;64929;51.178;4.138;2022-12-04T07:47:38;3.40;75.30
76172;DHT22;64929;51.178;4.138;2022-12-04T07:50:05;3.30;75.60
76172;DHT22;64929;51.178;4.138;2022-12-04T07:52:38;3.30;75.90
76172;DHT22;64929;51.178;4.138;2022-12-04T07:55:05;3.40;75.80
76172;DHT22;64929;51.178;4.138;2022-12-04T07:57:31;3.50;75.20
76172;DHT22;64929;51.178;4.138;2022-12-04T07:59:56;3.60;74.70
76172;DHT22;64929;51.178;4.138;2022-12-04T08:02:22;3.50;75.10
76172;DHT22;64929;51.178;4.138;2022-12-04T08:04:48;3.50;75.40
76172;DHT22;64929;51.178;4.138;2022-12-04T08:07:13;3.60;75.00
76172;DHT22;64929;51.178;4.138;2022-12-04T08:09:39;3.60;74.70
76172;DHT22;64929;51.178;4.138;2022-12-04T08:12:05;3.70;74.40
76172;DHT22;64929;51.178;4.138;2022-12-04T08:14:31;3.70;74.60
76172;DHT22;64929;51.178;4.138;2022-12-04T08:16:57;3.70;74.10
76172;DHT22;64929;51.178;4.138;2022-12-04T08:19:22;3.80;73.80
76172;DHT22;64929;51.178;4.138;2022-12-04T08:21:48;3.80;73.60
76172;DHT22;64929;51.178;4.138;2022-12-04T08:24:14;3.90;73.90
76172;DHT22;64929;51.178;4.138;2022-12-04T08:26:40;3.80;73.60
76172;DHT22;64929;51.178;4.138;2022-12-04T08:29:07;3.80;73.00
76172;DHT22;64929;51.178;4.138;2022-12-04T08:31:34;3.60;73.70
76172;DHT22;64929;51.178;4.138;2022-12-04T08:34:04;3.60;73.90
76172;DHT22;64929;51.178;4.138;2022-12-04T08:36:30;3.50;74.50
76172;DHT22;64929;51.178;4.138;2022-12-04T08:38:56;3.40;74.50
76172;DHT22;64929;51.178;4.138;2022-12-04T08:41:23;3.50;74.70
76172;DHT22;64929;51.178;4.138;2022-12-04T08:43:49;3.30;75.10
76172;DHT22;64929;51.178;4.138;2022-12-04T08:46:17;3.20;75.80
76172;DHT22;64929;51.178;4.138;2022-12-04T08:48:43;3.20;75.90
76172;DHT22;64929;51.178;4.138;2022-12-04T08:51:18;3.40;75.20
76172;DHT22;64929;51.178;4.138;2022-12-04T08:53:44;3.50;74.70
76172;DHT22;64929;51.178;4.138;2022-12-04T08:56:09;3.60;75.00
76172;DHT22;64929;51.178;4.138;2022-12-04T08:58:35;3.50;75.00
76172;DHT22;64929;51.178;4.138;2022-12-04T09:01:10;3.60;74.60
76172;DHT22;64929;51.178;4.138;2022-12-04T09:03:36;3.60;74.70
76172;DHT22;64929;51.178;4.138;2022-12-04T09:06:03;3.80;74.10
76172;DHT22;64929;51.178;4.138;2022-12-04T09:08:30;3.80;73.90
76172;DHT22;64929;51.178;4.138;2022-12-04T09:11:18;3.70;74.30
76172;DHT22;64929;51.178;4.138;2022-12-04T09:13:44;3.70;73.90
76172;DHT22;64929;51.178;4.138;2022-12-04T09:16:13;3.60;74.60
76172;DHT22;64929;51.178;4.138;2022-12-04T09:18:39;3.70;73.80
76172;DHT22;64929;51.178;4.138;2022-12-04T09:21:07;3.60;74.60
76172;DHT22;64929;51.178;4.138;2022-12-04T09:23:34;3.50;74.70
76172;DHT22;64929;51.178;4.138;2022-12-04T09:26:00;3.60;74.90
76172;DHT22;64929;51.178;4.138;2022-12-04T09:28:26;3.60;74.30
76172;DHT22;64929;51.178;4.138;2022-12-04T09:30:59;3.70;74.00
76172;DHT22;64929;51.178;4.138;2022-12-04T09:33:26;3.80;74.30
76172;DHT22;64929;51.178;4.138;2022-12-04T09:35:52;3.80;74.00
76172;DHT22;64929;51.178;4.138;2022-12-04T09:38:17;3.80;74.20
76172;DHT22;64929;51.178;4.138;2022-12-04T09:43:50;3.80;73.70
76172;DHT22;64929;51.178;4.138;2022-12-04T09:46:37;3.80;73.70
76172;DHT22;64929;51.178;4.138;2022-12-04T09:49:10;3.90;73.80
76172;DHT22;64929;51.178;4.138;2022-12-04T09:51:37;3.90;73.80
76172;DHT22;64929;51.178;4.138;2022-12-04T09:54:19;3.90;73.40
76172;DHT22;64929;51.178;4.138;2022-12-04T09:56:53;3.90;73.50
76172;DHT22;64929;51.178;4.138;2022-12-04T09:59:25;3.90;73.60
76172;DHT22;64929;51.178;4.138;2022-12-04T10:04:42;4.00;73.20
76172;DHT22;64929;51.178;4.138;2022-12-04T10:07:32;3.90;73.40
76172;DHT22;64929;51.178;4.138;2022-12-04T10:10:39;3.90;73.50
76172;DHT22;64929;51.178;4.138;2022-12-04T10:16:16;3.80;73.40
76172;DHT22;64929;51.178;4.138;2022-12-04T10:21:31;3.90;73.60
76172;DHT22;64929;51.178;4.138;2022-12-04T10:26:45;4.10;73.20
76172;DHT22;64929;51.178;4.138;2022-12-04T10:29:24;4.10;72.80
76172;DHT22;64929;51.178;4.138;2022-12-04T10:31:53;4.00;72.80
76172;DHT22;64929;51.178;4.138;2022-12-04T10:34:25;4.10;72.60
76172;DHT22;64929;51.178;4.138;2022-12-04T10:36:57;4.00;73.10
76172;DHT22;64929;51.178;4.138;2022-12-04T10:39:36;4.10;72.80
76172;DHT22;64929;51.178;4.138;2022-12-04T10:44:55;4.10;72.40
76172;DHT22;64929;51.178;4.138;2022-12-04T10:47:21;4.10;72.60
76172;DHT22;64929;51.178;4.138;2022-12-04T10:49:57;4.10;72.00
76172;DHT22;64929;51.178;4.138;2022-12-04T10:52:23;4.10;72.00
76172;DHT22;64929;51.178;4.138;2022-12-04T10:54:53;3.90;72.60
76172;DHT22;64929;51.178;4.138;2022-12-04T10:57:19;3.90;73.20
76172;DHT22;64929;51.178;4.138;2022-12-04T10:59:52;4.10;72.60
76172;DHT22;64929;51.178;4.138;2022-12-04T11:02:31;4.10;72.80
76172;DHT22;64929;51.178;4.138;2022-12-04T11:05:00;4.40;70.50
76172;DHT22;64929;51.178;4.138;2022-12-04T11:07:30;4.30;71.30
76172;DHT22;64929;51.178;4.138;2022-12-04T11:10:05;4.20;71.10
76172;DHT22;64929;51.178;4.138;2022-12-04T11:12:32;4.10;71.40
76172;DHT22;64929;51.178;4.138;2022-12-04T11:15:02;4.20;70.80
76172;DHT22;64929;51.178;4.138;2022-12-04T11:17:33;4.10;71.90
76172;DHT22;64929;51.178;4.138;2022-12-04T11:20:01;4.10;71.90
76172;DHT22;64929;51.178;4.138;2022-12-04T11:22:26;4.00;71.80
76172;DHT22;64929;51.178;4.138;2022-12-04T11:24:55;4.10;71.20
76172;DHT22;64929;51.178;4.138;2022-12-04T11:27:28;4.10;70.70
76172;DHT22;64929;51.178;4.138;2022-12-04T11:29:59;4.00;70.90
76172;DHT22;64929;51.178;4.138;2022-12-04T11:32:28;3.90;71.40
76172;DHT22;64929;51.178;4.138;2022-12-04T11:35:20;3.80;71.20
76172;DHT22;64929;51.178;4.138;2022-12-04T11:37:56;4.00;71.10
76172;DHT22;64929;51.178;4.138;2022-12-04T11:40:24;3.90;70.70
76172;DHT22;64929;51.178;4.138;2022-12-04T11:43:11;4.00;70.60
76172;DHT22;64929;51.178;4.138;2022-12-04T11:45:38;4.20;71.10
76172;DHT22;64929;51.178;4.138;2022-12-04T11:48:14;4.20;70.00
76172;DHT22;64929;51.178;4.138;2022-12-04T11:53:47;4.10;70.50
76172;DHT22;64929;51.178;4.138;2022-12-04T11:56:24;4.10;69.60
76172;DHT22;64929;51.178;4.138;2022-12-04T11:59:01;4.20;69.90
76172;DHT22;64929;51.178;4.138;2022-12-04T12:06:49;4.20;70.20
76172;DHT22;64929;51.178;4.138;2022-12-04T12:09:40;4.00;70.00
76172;DHT22;64929;51.178;4.138;2022-12-04T12:13:16;4.10;70.30
76172;DHT22;64929;51.178;4.138;2022-12-04T12:15:38;4.10;70.40
76172;DHT22;64929;51.178;4.138;2022-12-04T12:38:10;3.90;71.40
76172;DHT22;64929;51.178;4.138;2022-12-04T12:40:45;4.00;70.10
76172;DHT22;64929;51.178;4.138;2022-12-04T12:43:13;4.00;70.30
76172;DHT22;64929;51.178;4.138;2022-12-04T12:45:51;3.90;70.00
76172;DHT22;64929;51.178;4.138;2022-12-04T12:48:44;3.80;71.50
76172;DHT22;64929;51.178;4.138;2022-12-04T12:55:12;3.70;71.90
76172;DHT22;64929;51.178;4.138;2022-12-04T12:57:16;3.90;69.90
76172;DHT22;64929;51.178;4.138;2022-12-04T12:59:49;3.90;70.40
76172;DHT22;64929;51.178;4.138;2022-12-04T13:04:54;3.80;70.10
76172;DHT22;64929;51.178;4.138;2022-12-04T13:07:30;3.90;69.90
76172;DHT22;64929;51.178;4.138;2022-12-04T13:10:28;3.90;70.20
76172;DHT22;64929;51.178;4.138;2022-12-04T13:13:03;4.00;69.30
76172;DHT22;64929;51.178;4.138;2022-12-04T13:15:39;4.10;68.70
76172;DHT22;64929;51.178;4.138;2022-12-04T13:18:13;4.00;69.10
76172;DHT22;64929;51.178;4.138;2022-12-04T13:20:49;4.00;70.00
76172;DHT22;64929;51.178;4.138;2022-12-04T13:29:07;4.10;69.10
76172;DHT22;64929;51.178;4.138;2022-12-04T13:42:45;3.80;71.20
76172;DHT22;64929;51.178;4.138;2022-12-04T13:45:23;3.90;71.20
76172;DHT22;64929;51.178;4.138;2022-12-04T13:47:57;3.90;71.60
76172;DHT22;64929;51.178;4.138;2022-12-04T13:50:34;3.90;71.30
76172;DHT22;64929;51.178;4.138;2022-12-04T13:53:00;3.90;71.40
76172;DHT22;64929;51.178;4.138;2022-12-04T13:55:34;4.00;71.10
76172;DHT22;64929;51.178;4.138;2022-12-04T14:00:36;4.10;70.20
76172;DHT22;64929;51.178;4.138;2022-12-04T14:03:27;4.00;70.90
76172;DHT22;64929;51.178;4.138;2022-12-04T14:05:54;4.00;70.60
76172;DHT22;64929;51.178;4.138;2022-12-04T14:08:25;4.00;70.60
76172;DHT22;64929;51.178;4.138;2022-12-04T14:11:01;3.90;70.70
76172;DHT22;64929;51.178;4.138;2022-12-04T14:13:47;3.90;71.30
76172;DHT22;64929;51.178;4.138;2022-12-04T14:18:47;3.90;72.00
76172;DHT22;64929;51.178;4.138;2022-12-04T14:21:13;3.90;71.80
76172;DHT22;64929;51.178;4.138;2022-12-04T14:23:40;3.70;72.30
76172;DHT22;64929;51.178;4.138;2022-12-04T14:26:25;3.80;72.40
76172;DHT22;64929;51.178;4.138;2022-12-04T14:29:06;3.90;71.60
76172;DHT22;64929;51.178;4.138;2022-12-04T14:31:45;3.90;71.40
76172;DHT22;64929;51.178;4.138;2022-12-04T14:34:21;3.80;72.30
76172;DHT22;64929;51.178;4.138;2022-12-04T14:36:50;3.80;71.60
76172;DHT22;64929;51.178;4.138;2022-12-04T14:39:29;3.80;72.20
76172;DHT22;64929;51.178;4.138;2022-12-04T14:42:19;3.90;72.30
76172;DHT22;64929;51.178;4.138;2022-12-04T14:44:56;3.90;72.10
76172;DHT22;64929;51.178;4.138;2022-12-04T14:50:27;3.80;72.00
76172;DHT22;64929;51.178;4.138;2022-12-04T14:53:05;3.70;72.70
76172;DHT22;64929;51.178;4.138;2022-12-04T14:58:18;3.80;72.10
76172;DHT22;64929;51.178;4.138;2022-12-04T15:00:58;3.70;72.60
76172;DHT22;64929;51.178;4.138;2022-12-04T15:03:25;3.70;72.50
76172;DHT22;64929;51.178;4.138;2022-12-04T15:06:04;3.80;72.20
76172;DHT22;64929;51.178;4.138;2022-12-04T15:08:31;3.80;72.10
76172;DHT22;64929;51.178;4.138;2022-12-04T15:10:57;3.80;72.50
76172;DHT22;64929;51.178;4.138;2022-12-04T15:13:41;3.70;72.10
76172;DHT22;64929;51.178;4.138;2022-12-04T15:16:17;3.70;72.50
76172;DHT22;64929;51.178;4.138;2022-12-04T15:18:57;3.70;72.10
76172;DHT22;64929;51.178;4.138;2022-12-04T15:21:36;3.60;72.70
76172;DHT22;64929;51.178;4.138;2022-12-04T15:24:10;3.60;73.20
76172;DHT22;64929;51.178;4.138;2022-12-04T15:26:44;3.50;73.70
76172;DHT22;64929;51.178;4.138;2022-12-04T15:29:18;3.50;73.50
76172;DHT22;64929;51.178;4.138;2022-12-04T15:31:49;3.60;73.10
76172;DHT22;64929;51.178;4.138;2022-12-04T15:34:23;3.60;72.40
76172;DHT22;64929;51.178;4.138;2022-12-04T15:37:02;3.70;72.30
76172;DHT22;64929;51.178;4.138;2022-12-04T15:39:32;3.70;72.60
76172;DHT22;64929;51.178;4.138;2022-12-04T15:42:23;3.60;73.10
76172;DHT22;64929;51.178;4.138;2022-12-04T15:44:58;3.70;73.00
76172;DHT22;64929;51.178;4.138;2022-12-04T15:47:48;3.70;72.70
76172;DHT22;64929;51.178;4.138;2022-12-04T15:55:17;3.60;73.40
76172;DHT22;64929;51.178;4.138;2022-12-04T15:57:59;3.50;73.40
76172;DHT22;64929;51.178;4.138;2022-12-04T16:00:34;3.50;73.50
76172;DHT22;64929;51.178;4.138;2022-12-04T16:03:18;3.50;73.80
76172;DHT22;64929;51.178;4.138;2022-12-04T16:05:46;3.50;74.00
76172;DHT22;64929;51.178;4.138;2022-12-04T16:08:27;3.50;73.70
76172;DHT22;64929;51.178;4.138;2022-12-04T16:11:21;3.60;73.60
76172;DHT22;64929;51.178;4.138;2022-12-04T16:16:34;3.50;73.20
76172;DHT22;64929;51.178;4.138;2022-12-04T16:21:46;3.50;74.40
76172;DHT22;64929;51.178;4.138;2022-12-04T16:24:12;3.40;74.30
76172;DHT22;64929;51.178;4.138;2022-12-04T16:26:39;3.40;74.10
76172;DHT22;64929;51.178;4.138;2022-12-04T16:29:05;3.40;74.40
76172;DHT22;64929;51.178;4.138;2022-12-04T16:31:30;3.30;74.60
76172;DHT22;64929;51.178;4.138;2022-12-04T16:33:56;3.40;74.70
76172;DHT22;64929;51.178;4.138;2022-12-04T16:36:22;3.40;74.30
76172;DHT22;64929;51.178;4.138;2022-12-04T16:38:47;3.50;74.40
76172;DHT22;64929;51.178;4.138;2022-12-04T16:41:17;3.60;73.70
76172;DHT22;64929;51.178;4.138;2022-12-04T16:43:43;3.50;73.60
76172;DHT22;64929;51.178;4.138;2022-12-04T16:46:14;3.50;73.90
76172;DHT22;64929;51.178;4.138;2022-12-04T16:48:41;3.50;73.50
76172;DHT22;64929;51.178;4.138;2022-12-04T16:51:15;3.50;73.80
76172;DHT22;64929;51.178;4.138;2022-12-04T16:53:41;3.40;74.20
76172;DHT22;64929;51.178;4.138;2022-12-04T16:56:07;3.60;74.20
76172;DHT22;64929;51.178;4.138;2022-12-04T16:58:33;3.60;73.50
76172;DHT22;64929;51.178;4.138;2022-12-04T17:01:01;3.50;74.00
76172;DHT22;64929;51.178;4.138;2022-12-04T17:03:30;3.40;74.00
76172;DHT22;64929;51.178;4.138;2022-12-04T17:05:57;3.30;74.20
76172;DHT22;64929;51.178;4.138;2022-12-04T17:08:24;3.30;74.20
76172;DHT22;64929;51.178;4.138;2022-12-04T17:10:50;3.20;74.70
76172;DHT22;64929;51.178;4.138;2022-12-04T17:13:17;3.20;75.00
76172;DHT22;64929;51.178;4.138;2022-12-04T17:15:43;3.30;74.80
76172;DHT22;64929;51.178;4.138;2022-12-04T17:18:09;3.20;75.30
76172;DHT22;64929;51.178;4.138;2022-12-04T17:20:34;3.30;74.90
76172;DHT22;64929;51.178;4.138;2022-12-04T17:23:00;3.40;74.20
76172;DHT22;64929;51.178;4.138;2022-12-04T17:25:25;3.30;74.30
76172;DHT22;64929;51.178;4.138;2022-12-04T17:27:51;3.40;74.30
76172;DHT22;64929;51.178;4.138;2022-12-04T17:30:17;3.30;73.90
76172;DHT22;64929;51.178;4.138;2022-12-04T17:32:43;3.30;74.30
76172;DHT22;64929;51.178;4.138;2022-12-04T17:35:10;3.20;74.80
76172;DHT22;64929;51.178;4.138;2022-12-04T17:37:36;3.30;75.00
76172;DHT22;64929;51.178;4.138;2022-12-04T17:40:04;3.40;74.70
76172;DHT22;64929;51.178;4.138;2022-12-04T17:42:31;3.40;74.60
76172;DHT22;64929;51.178;4.138;2022-12-04T17:44:56;3.50;74.50
76172;DHT22;64929;51.178;4.138;2022-12-04T17:47:22;3.50;74.20
76172;DHT22;64929;51.178;4.138;2022-12-04T17:49:48;3.60;74.60
76172;DHT22;64929;51.178;4.138;2022-12-04T17:52:14;3.60;74.20
76172;DHT22;64929;51.178;4.138;2022-12-04T17:54:39;3.70;73.60
76172;DHT22;64929;51.178;4.138;2022-12-04T17:57:05;3.60;73.70
76172;DHT22;64929;51.178;4.138;2022-12-04T17:59:31;3.50;74.30
76172;DHT22;64929;51.178;4.138;2022-12-04T18:01:56;3.50;74.40
76172;DHT22;64929;51.178;4.138;2022-12-04T18:04:22;3.40;75.10
76172;DHT22;64929;51.178;4.138;2022-12-04T18:06:48;3.50;74.90
76172;DHT22;64929;51.178;4.138;2022-12-04T18:09:15;3.50;74.70